Time;durP1;ratioP1;P1;durP2;ratioP2;P2;SDS_P1;SDS_P2;PMS_P1;PMS_P2;Temp;Humidity;BMP_temperature;BMP_pressure;BME280_temperature;BME280_humidity;BME280_pressure;Samples;Min_cycle;Max_cycle;Signal;HPM_P1;HPM_P2
2022/02/11 00:00:50;;;;;;;3.13;2.80;;;;;;;2.66;100.00;93341.34;2123467;27;20467;-81
2022/02/11 00:02:13;;;;;;;3.75;2.25;;;;;;;2.68;100.00;93352.31;2108162;28;20024;-81
2022/02/11 00:05:06;;;;;;;4.85;2.90;;;;;;;2.65;100.00;93350.41;2123455;27;20023;-80
2022/02/11 00:06:57;;;;;;;2.63;2.33;;;;;;;2.62;100.00;93361.66;2106258;28;20759;-80
2022/02/11 00:07:59;;;;;;;2.70;2.30;;;;;;;2.62;100.00;93357.13;2099903;28;20021;-80
2022/02/11 00:09:00;;;;;;;3.63;2.40;;;;;;;2.62;100.00;93359.78;2093760;28;20016;-82
2022/02/11 00:10:03;;;;;;;3.90;2.20;;;;;;;2.74;100.00;93358.78;2094066;28;20021;-80
2022/02/11 00:11:04;;;;;;;3.35;2.50;;;;;;;2.73;100.00;93352.00;2090271;28;20489;-81
2022/02/11 00:12:05;;;;;;;3.05;2.67;;;;;;;2.75;100.00;93350.50;2090046;28;20017;-82
2022/02/11 00:13:06;;;;;;;3.05;2.20;;;;;;;2.69;100.00;93353.84;2098243;28;20350;-81
2022/02/11 00:14:09;;;;;;;2.63;2.40;;;;;;;2.64;100.00;93354.91;2106436;28;20028;-81
2022/02/11 00:16:30;;;;;;;4.43;1.90;;;;;;;2.82;100.00;93333.25;2109075;28;20106;-82
2022/02/11 00:17:31;;;;;;;3.55;2.13;;;;;;;2.78;100.00;93335.84;2090106;28;20040;-81
2022/02/11 00:18:32;;;;;;;4.07;2.40;;;;;;;2.85;100.00;93335.16;2098149;28;20025;-82
2022/02/11 00:19:34;;;;;;;2.97;2.33;;;;;;;2.78;100.00;93330.56;2106750;28;20170;-81
2022/02/11 00:20:36;;;;;;;2.28;2.08;;;;;;;2.82;100.00;93334.00;2106629;28;20031;-82
2022/02/11 00:21:38;;;;;;;3.20;2.50;;;;;;;2.77;100.00;93339.59;2090348;28;20027;-80
2022/02/11 00:22:39;;;;;;;2.53;2.33;;;;;;;2.85;100.00;93346.47;2097441;28;20051;-81
2022/02/11 00:23:40;;;;;;;4.05;2.35;;;;;;;2.84;100.00;93339.66;2097668;28;20484;-81
2022/02/11 00:24:41;;;;;;;3.95;2.60;;;;;;;2.76;100.00;93341.47;2106327;28;20020;-82
2022/02/11 00:25:49;;;;;;;3.95;2.40;;;;;;;2.73;100.00;93342.22;2106180;28;20026;-80
2022/02/11 00:27:14;;;;;;;3.55;2.30;;;;;;;2.70;100.00;93344.78;2108212;27;20028;-81
2022/02/11 00:32:30;;;;;;;3.00;2.45;;;;;;;2.94;100.00;93352.25;2107902;28;20027;-82
2022/02/11 00:33:32;;;;;;;3.72;2.30;;;;;;;2.86;100.00;93355.16;2102170;28;20028;-81
2022/02/11 00:35:06;;;;;;;4.47;2.58;;;;;;;2.75;100.00;93347.13;2097104;28;20135;-82
2022/02/11 00:36:01;;;;;;;2.90;2.40;;;;;;;2.70;100.00;93345.56;2109109;28;20019;-82
2022/02/11 00:37:10;;;;;;;5.13;2.50;;;;;;;2.62;100.00;93359.03;2097823;28;20027;-81
2022/02/11 00:38:20;;;;;;;3.05;2.35;;;;;;;2.64;100.00;93354.16;2087191;28;20028;-82
2022/02/11 01:02:53;;;;;;;3.70;2.63;;;;;;;2.49;100.00;93350.56;2114297;28;20153;-83
2022/02/11 01:04:55;;;;;;;3.42;2.67;;;;;;;2.56;100.00;93355.19;2105939;28;20020;-81
2022/02/11 01:05:56;;;;;;;4.72;3.10;;;;;;;2.72;100.00;93359.16;2097600;28;20029;-82
2022/02/11 01:06:57;;;;;;;3.80;3.25;;;;;;;3.01;100.00;93349.66;2097536;28;20027;-82
2022/02/11 01:07:58;;;;;;;4.28;3.17;;;;;;;3.14;100.00;93357.34;2105885;28;20392;-82
2022/02/11 01:08:59;;;;;;;3.08;2.85;;;;;;;3.08;100.00;93364.06;2098778;28;20060;-83
2022/02/11 01:10:00;;;;;;;4.18;3.20;;;;;;;3.01;100.00;93360.22;2089686;28;20025;-80
2022/02/11 01:11:02;;;;;;;4.18;3.00;;;;;;;3.02;100.00;93359.09;2096486;28;20076;-83
2022/02/11 01:12:05;;;;;;;3.15;2.80;;;;;;;2.98;100.00;93357.53;2098256;28;20027;-81
2022/02/11 01:13:06;;;;;;;3.17;2.80;;;;;;;2.97;100.00;93358.66;2105839;28;20024;-81
2022/02/11 01:14:08;;;;;;;2.92;2.30;;;;;;;3.07;100.00;93365.94;2097467;28;20465;-83
2022/02/11 01:15:10;;;;;;;3.75;2.90;;;;;;;2.98;100.00;93360.19;2089779;28;20094;-83
2022/02/11 01:16:16;;;;;;;3.72;2.65;;;;;;;3.10;100.00;93361.81;2104939;28;20058;-81
2022/02/11 01:17:43;;;;;;;2.95;2.67;;;;;;;3.07;100.00;93360.66;2113337;27;20143;-82
2022/02/11 01:18:49;;;;;;;4.20;2.65;;;;;;;2.95;100.00;93359.03;2096864;28;20028;-82
2022/02/11 01:20:06;;;;;;;2.78;2.45;;;;;;;2.78;100.00;93364.88;2102484;28;20031;-81
2022/02/11 01:21:14;;;;;;;3.38;2.75;;;;;;;2.88;100.00;93355.56;2113270;28;20390;-81
2022/02/11 01:24:52;;;;;;;4.32;2.72;;;;;;;2.98;100.00;93352.25;2105972;28;20503;-81
2022/02/11 01:29:48;;;;;;;2.38;2.17;;;;;;;2.76;100.00;93372.38;2099393;28;20036;-81
2022/02/11 01:32:16;;;;;;;3.88;2.72;;;;;;;2.63;100.00;93371.09;2099539;28;20508;-82
2022/02/11 01:38:51;;;;;;;2.92;2.28;;;;;;;2.56;100.00;93373.66;2072565;28;20037;-80
2022/02/11 01:40:17;;;;;;;2.80;2.50;;;;;;;2.42;100.00;93361.81;2075943;28;20068;-81
2022/02/11 01:49:52;;;;;;;3.22;2.20;;;;;;;2.41;100.00;93368.19;2104792;28;20107;-81
2022/02/11 02:00:08;;;;;;;2.25;2.05;;;;;;;1.98;100.00;93356.31;2066236;28;20026;-81
2022/02/11 02:03:44;;;;;;;2.95;1.88;;;;;;;1.99;100.00;93355.94;2114436;28;20508;-81
2022/02/11 02:28:21;;;;;;;2.90;2.60;;;;;;;1.90;100.00;93373.91;2135330;27;20104;-83
2022/02/11 02:38:42;;;;;;;7.25;2.28;;;;;;;1.50;100.00;93356.72;2121438;27;20053;-84
2022/02/11 02:57:56;;;;;;;2.35;2.15;;;;;;;1.35;100.00;93364.72;2117762;27;20428;-84
2022/02/11 02:59:01;;;;;;;2.92;2.05;;;;;;;1.32;100.00;93374.09;2123595;27;20437;-83
2022/02/11 03:49:11;;;;;;;0.50;0.50;;;;;;;0.84;100.00;93396.56;2117376;27;20122;-80
2022/02/11 03:51:47;;;;;;;0.40;0.40;;;;;;;0.68;100.00;93404.50;2108946;28;20039;-81
2022/02/11 03:55:35;;;;;;;0.50;0.50;;;;;;;0.90;100.00;93403.03;2118192;27;20019;-80
2022/02/11 04:23:13;;;;;;;0.70;0.70;;;;;;;0.67;100.00;93476.63;2121551;27;20035;-83
2022/02/11 04:55:49;;;;;;;0.30;0.30;;;;;;;-0.12;100.00;93556.31;2123789;27;20083;-83
2022/02/11 04:56:50;;;;;;;0.20;0.20;;;;;;;-0.18;100.00;93543.75;2121484;27;20023;-84
2022/02/11 05:00:31;;;;;;;0.30;0.30;;;;;;;-0.24;100.00;93566.13;2117033;27;20035;-83
2022/02/11 05:01:32;;;;;;;0.30;0.30;;;;;;;-0.12;100.00;93558.94;2116047;27;20115;-84
2022/02/11 05:02:35;;;;;;;0.30;0.30;;;;;;;-0.22;100.00;93561.28;2114253;28;20031;-82
2022/02/11 05:03:36;;;;;;;0.25;0.25;;;;;;;-0.18;100.00;93557.63;2116592;27;20112;-84
2022/02/11 05:04:37;;;;;;;0.20;0.20;;;;;;;-0.22;100.00;93563.91;2114437;28;20043;-83
2022/02/11 05:05:50;;;;;;;1.38;0.40;;;;;;;-0.08;100.00;93569.53;2105897;28;20019;-83
2022/02/11 05:06:51;;;;;;;0.30;0.30;;;;;;;-0.14;100.00;93576.13;2100931;28;20040;-83
2022/02/11 05:07:52;;;;;;;0.30;0.30;;;;;;;0.04;100.00;93581.81;2097765;28;20032;-85
2022/02/11 05:08:54;;;;;;;0.25;0.25;;;;;;;0.03;100.00;93596.06;2105983;28;20539;-83
2022/02/11 05:09:55;;;;;;;0.60;0.60;;;;;;;0.12;100.00;93586.16;2109750;28;20071;-82
2022/02/11 05:10:57;;;;;;;0.68;0.65;;;;;;;0.07;100.00;93589.81;2096945;28;20051;-85
2022/02/11 05:11:58;;;;;;;1.23;1.08;;;;;;;0.23;100.00;93589.84;2097864;28;20037;-84
2022/02/11 05:12:59;;;;;;;1.45;1.25;;;;;;;0.17;100.00;93596.44;2097542;28;20028;-82
2022/02/11 05:14:00;;;;;;;1.60;1.05;;;;;;;0.33;100.00;93599.06;2105678;28;20024;-84
2022/02/11 05:15:09;;;;;;;2.15;1.50;;;;;;;0.05;100.00;93607.78;2105992;28;20024;-85
2022/02/11 05:16:09;;;;;;;1.80;1.50;;;;;;;0.04;100.00;93603.63;2099492;28;20125;-83
2022/02/11 05:17:10;;;;;;;1.30;1.20;;;;;;;-0.10;100.00;93611.91;2105806;28;20028;-83
2022/02/11 05:18:12;;;;;;;0.90;0.90;;;;;;;-0.02;100.00;93600.47;2105707;28;20031;-83
2022/02/11 05:19:13;;;;;;;0.82;0.82;;;;;;;0.07;100.00;93602.19;2105849;28;20016;-84
2022/02/11 05:20:14;;;;;;;0.75;0.65;;;;;;;-0.08;100.00;93604.47;2106001;28;20031;-83
2022/02/11 05:21:15;;;;;;;0.70;0.70;;;;;;;-0.07;100.00;93613.09;2114078;28;20016;-83
2022/02/11 05:22:16;;;;;;;0.73;0.73;;;;;;;-0.11;100.00;93615.63;2105750;28;20028;-84
2022/02/11 05:23:17;;;;;;;1.42;1.00;;;;;;;-0.06;100.00;93618.00;2097463;28;20111;-84
2022/02/11 05:24:18;;;;;;;1.80;0.75;;;;;;;-0.26;100.00;93619.00;2114364;28;20434;-83
2022/02/11 05:25:19;;;;;;;1.10;1.00;;;;;;;-0.30;100.00;93623.38;2114148;28;20027;-82
2022/02/11 05:26:20;;;;;;;1.67;0.80;;;;;;;-0.18;100.00;93619.94;2105352;28;20028;-83
2022/02/11 05:27:21;;;;;;;0.80;0.70;;;;;;;-0.24;100.00;93623.91;2112743;28;20023;-83
2022/02/11 05:28:22;;;;;;;0.68;0.68;;;;;;;-0.20;100.00;93627.38;2122626;27;20030;-82
2022/02/11 05:29:23;;;;;;;1.00;0.90;;;;;;;-0.05;100.00;93616.16;2122813;27;20027;-80
2022/02/11 05:30:24;;;;;;;1.00;1.00;;;;;;;-0.13;100.00;93624.94;2105708;28;20047;-81
2022/02/11 05:31:25;;;;;;;1.35;1.25;;;;;;;-0.03;100.00;93619.22;2105823;28;20110;-82
2022/02/11 05:32:26;;;;;;;1.00;1.00;;;;;;;-0.27;100.00;93620.81;2105891;28;20049;-80
2022/02/11 05:33:28;;;;;;;1.15;0.90;;;;;;;-0.33;100.00;93627.44;2114104;28;20499;-80
2022/02/11 05:34:29;;;;;;;1.20;1.10;;;;;;;-0.17;100.00;93624.09;2114251;27;20030;-82
2022/02/11 05:35:31;;;;;;;0.90;0.90;;;;;;;-0.12;100.00;93627.25;2105703;28;20381;-80
2022/02/11 05:36:32;;;;;;;1.27;1.02;;;;;;;-0.14;100.00;93629.44;2097703;28;20378;-80
2022/02/11 05:37:33;;;;;;;1.20;1.10;;;;;;;-0.33;100.00;93630.06;2114252;27;20064;-80
2022/02/11 05:38:34;;;;;;;1.13;1.10;;;;;;;-0.30;100.00;93633.88;2114190;28;20028;-80
2022/02/11 05:39:35;;;;;;;1.15;1.05;;;;;;;-0.43;100.00;93627.16;2105725;28;20461;-80
2022/02/11 05:40:36;;;;;;;1.30;1.20;;;;;;;-0.36;100.00;93638.59;2105906;28;20019;-79
2022/02/11 05:41:37;;;;;;;1.63;1.52;;;;;;;-0.24;100.00;93642.28;2104942;28;20161;-80
2022/02/11 05:42:38;;;;;;;1.63;1.33;;;;;;;-0.31;100.00;93629.72;2106166;28;20024;-83
2022/02/11 05:43:42;;;;;;;1.50;1.40;;;;;;;-0.27;100.00;93654.97;2097317;28;20028;-79
2022/02/11 05:44:43;;;;;;;1.90;1.50;;;;;;;-0.33;100.00;93640.56;2106099;28;20028;-81
2022/02/11 05:45:44;;;;;;;2.20;1.52;;;;;;;-0.29;100.00;93644.06;2113760;28;20110;-80
2022/02/11 05:46:44;;;;;;;1.40;1.30;;;;;;;-0.33;100.00;93652.94;2114129;28;20049;-81
2022/02/11 05:47:45;;;;;;;1.80;1.30;;;;;;;-0.49;100.00;93652.84;2114126;28;20027;-80
2022/02/11 05:48:46;;;;;;;2.70;1.80;;;;;;;-0.34;100.00;93652.16;2105342;28;20384;-81
2022/02/11 05:49:48;;;;;;;2.03;1.50;;;;;;;-0.41;100.00;93664.34;2105702;28;20028;-79
2022/02/11 05:50:49;;;;;;;2.40;1.70;;;;;;;-0.45;100.00;93650.34;2114034;28;20038;-79
2022/02/11 05:51:50;;;;;;;3.80;2.55;;;;;;;-0.48;100.00;93661.50;2105529;28;20020;-80
2022/02/11 05:52:51;;;;;;;2.28;2.08;;;;;;;-0.53;100.00;93662.50;2114181;27;20042;-82
2022/02/11 05:53:52;;;;;;;2.90;2.45;;;;;;;-0.52;100.00;93656.94;2114077;28;20023;-80
2022/02/11 05:54:53;;;;;;;2.60;2.38;;;;;;;-0.48;100.00;93653.63;2105816;28;20062;-80
2022/02/11 05:55:54;;;;;;;2.72;2.50;;;;;;;-0.53;100.00;93660.66;2105496;28;20027;-80
2022/02/11 05:56:54;;;;;;;3.50;2.97;;;;;;;-0.53;100.00;93665.91;2115941;27;20030;-80
2022/02/11 05:57:55;;;;;;;3.03;2.80;;;;;;;-0.53;100.00;93662.50;2122513;27;20430;-80
2022/02/11 05:58:57;;;;;;;3.67;2.97;;;;;;;-0.20;100.00;93670.19;2122609;27;20093;-80
2022/02/11 05:59:59;;;;;;;3.90;2.75;;;;;;;-0.55;100.00;93672.56;2111885;28;20016;-79
2022/02/11 06:01:00;;;;;;;6.28;2.92;;;;;;;-0.61;100.00;93672.03;2101457;28;20107;-82
2022/02/11 06:02:01;;;;;;;3.33;3.03;;;;;;;-0.66;100.00;93676.72;2105392;28;20028;-80
2022/02/11 06:03:02;;;;;;;3.10;2.90;;;;;;;-0.67;100.00;93683.09;2105556;28;20061;-80
2022/02/11 06:04:03;;;;;;;6.18;3.38;;;;;;;-0.60;100.00;93680.69;2110515;27;20545;-83
2022/02/11 06:05:04;;;;;;;4.25;2.95;;;;;;;-0.50;100.00;93690.72;2108554;28;20047;-81
2022/02/11 06:06:05;;;;;;;6.00;2.80;;;;;;;-0.36;100.00;93700.84;2110994;28;20023;-80
2022/02/11 06:07:06;;;;;;;5.38;3.20;;;;;;;-0.42;100.00;93702.97;2110798;28;20032;-82
2022/02/11 06:08:07;;;;;;;3.33;2.95;;;;;;;-0.47;100.00;93703.19;2121206;28;20041;-81
2022/02/11 06:09:08;;;;;;;3.33;3.05;;;;;;;-0.53;100.00;93702.66;2112427;28;20424;-81
2022/02/11 06:10:29;;;;;;;3.35;3.05;;;;;;;-0.44;100.00;93696.50;2121014;27;20134;-82
2022/02/11 06:11:29;;;;;;;3.53;3.22;;;;;;;-0.45;100.00;93698.34;2113286;28;20032;-80
2022/02/11 06:12:30;;;;;;;3.53;3.22;;;;;;;-0.34;100.00;93706.56;2104819;28;20422;-81
2022/02/11 06:13:32;;;;;;;4.57;3.80;;;;;;;-0.30;100.00;93710.06;2104774;28;20118;-81
2022/02/11 06:14:35;;;;;;;5.47;4.10;;;;;;;-0.42;100.00;93717.94;2113362;28;20019;-80
2022/02/11 06:15:36;;;;;;;5.90;4.13;;;;;;;-0.51;100.00;93716.22;2105435;28;20063;-80
2022/02/11 06:16:36;;;;;;;5.75;4.55;;;;;;;-0.65;100.00;93718.41;2097619;28;20201;-79
2022/02/11 06:17:38;;;;;;;4.93;4.40;;;;;;;-0.57;100.00;93720.16;2105333;28;20150;-82
2022/02/11 06:18:39;;;;;;;5.00;4.50;;;;;;;-0.62;100.00;93720.38;2102092;28;20020;-80
2022/02/11 06:19:41;;;;;;;5.22;4.15;;;;;;;-0.53;100.00;93730.75;2103143;28;20052;-81
2022/02/11 06:20:42;;;;;;;4.25;3.85;;;;;;;-0.57;100.00;93716.75;2105522;28;20024;-80
2022/02/11 06:21:43;;;;;;;5.38;4.38;;;;;;;-0.54;100.00;93726.59;2113705;28;20358;-80
2022/02/11 06:22:44;;;;;;;7.93;4.45;;;;;;;-0.66;100.00;93726.59;2116273;27;20023;-81
2022/02/11 06:23:45;;;;;;;8.43;4.68;;;;;;;-0.64;100.00;93729.69;2115041;28;20066;-81
2022/02/11 06:24:47;;;;;;;8.05;5.00;;;;;;;-0.60;100.00;93722.69;2102125;28;20024;-81
2022/02/11 06:25:48;;;;;;;6.82;4.63;;;;;;;-0.77;100.00;93740.19;2103395;28;20024;-81
2022/02/11 06:26:49;;;;;;;5.72;4.55;;;;;;;-0.60;100.00;93736.56;2104442;28;20044;-81
2022/02/11 06:27:50;;;;;;;5.10;4.43;;;;;;;-0.46;100.00;93740.72;2103934;28;20409;-81
2022/02/11 06:28:51;;;;;;;7.43;4.82;;;;;;;-0.39;100.00;93735.69;2110435;28;20027;-81
2022/02/11 06:29:53;;;;;;;6.22;4.10;;;;;;;-0.47;100.00;93749.69;2111946;27;20356;-80
2022/02/11 06:30:54;;;;;;;5.95;5.28;;;;;;;-0.47;100.00;93747.06;2112871;28;20019;-80
2022/02/11 06:31:58;;;;;;;5.93;4.80;;;;;;;-0.58;100.00;93752.75;2109599;28;20897;-81
2022/02/11 06:32:59;;;;;;;6.47;4.47;;;;;;;-0.38;100.00;93766.84;2112331;28;20031;-79
2022/02/11 06:34:00;;;;;;;6.88;5.07;;;;;;;-0.53;100.00;93776.19;2112521;28;20024;-80
2022/02/11 06:35:01;;;;;;;8.25;4.90;;;;;;;-0.57;100.00;93777.13;2102079;28;20047;-80
2022/02/11 06:36:02;;;;;;;6.75;4.35;;;;;;;-0.62;100.00;93775.50;2104502;28;20035;-80
2022/02/11 06:37:05;;;;;;;7.43;4.63;;;;;;;-0.54;100.00;93777.25;2112883;28;20015;-81
2022/02/11 06:38:06;;;;;;;10.05;4.30;;;;;;;-0.60;100.00;93788.31;2121454;27;20056;-81
2022/02/11 06:39:07;;;;;;;6.35;5.35;;;;;;;-0.58;100.00;93771.13;2112749;28;20032;-80
2022/02/11 06:40:10;;;;;;;5.47;4.13;;;;;;;-0.49;100.00;93786.00;2107786;28;20070;-80
2022/02/11 06:41:11;;;;;;;10.60;4.10;;;;;;;-0.46;100.00;93796.63;2113184;28;20107;-79
2022/02/11 06:42:12;;;;;;;10.45;4.45;;;;;;;-0.65;100.00;93791.16;2121027;27;20019;-81
2022/02/11 06:43:14;;;;;;;7.20;4.63;;;;;;;-0.71;100.00;93798.47;2112852;28;20662;-80
2022/02/11 06:44:15;;;;;;;7.18;4.53;;;;;;;-0.74;100.00;93803.63;2112855;28;20020;-81
2022/02/11 06:45:16;;;;;;;7.20;4.45;;;;;;;-0.64;100.00;93817.06;2121484;28;20083;-82
2022/02/11 06:46:20;;;;;;;8.32;5.05;;;;;;;-0.80;100.00;93813.56;2104766;28;20039;-80
2022/02/11 06:47:21;;;;;;;6.53;4.63;;;;;;;-0.60;100.00;93825.84;2119739;27;20027;-83
2022/02/11 06:48:23;;;;;;;6.57;4.22;;;;;;;-0.52;100.00;93826.81;2118444;28;20077;-81
2022/02/11 06:49:24;;;;;;;8.13;4.57;;;;;;;-0.77;100.00;93834.66;2122006;27;20452;-82
2022/02/11 06:50:25;;;;;;;8.73;4.32;;;;;;;-0.60;100.00;93835.56;2129622;27;20018;-81
2022/02/11 06:51:26;;;;;;;6.00;4.03;;;;;;;-0.65;100.00;93835.78;2116901;28;20070;-81
2022/02/11 06:52:27;;;;;;;6.28;4.05;;;;;;;-0.69;100.00;93840.16;2112947;28;20503;-79
2022/02/11 06:53:28;;;;;;;4.20;3.42;;;;;;;-0.58;100.00;93828.13;2112909;28;20058;-80
2022/02/11 06:54:29;;;;;;;7.10;4.57;;;;;;;-0.65;100.00;93838.41;2121649;28;20052;-80
2022/02/11 06:55:30;;;;;;;5.57;4.32;;;;;;;-0.65;100.00;93833.16;2114220;28;20076;-79
2022/02/11 06:56:30;;;;;;;4.05;3.55;;;;;;;-0.76;100.00;93830.19;2121314;27;20733;-80
2022/02/11 06:57:31;;;;;;;6.85;3.97;;;;;;;-0.85;100.00;93842.63;2122381;27;20023;-81
2022/02/11 06:58:32;;;;;;;7.35;3.88;;;;;;;-0.76;100.00;93836.19;2105907;28;20519;-80
2022/02/11 06:59:33;;;;;;;6.63;4.60;;;;;;;-0.82;100.00;93842.00;2097712;28;20036;-81
2022/02/11 07:00:38;;;;;;;10.52;4.78;;;;;;;-0.74;100.00;93840.38;2106119;28;20019;-80
2022/02/11 07:01:39;;;;;;;6.85;4.30;;;;;;;-0.79;100.00;93849.19;2106510;28;20024;-79
2022/02/11 07:02:41;;;;;;;6.22;4.25;;;;;;;-0.78;100.00;93854.13;2106081;28;20707;-82
2022/02/11 07:03:42;;;;;;;7.00;4.65;;;;;;;-0.87;100.00;93863.19;2110502;27;20031;-80
2022/02/11 07:04:44;;;;;;;7.05;3.90;;;;;;;-0.82;100.00;93865.63;2114411;28;20023;-80
2022/02/11 07:05:46;;;;;;;6.30;3.67;;;;;;;-0.94;100.00;93873.44;2106258;28;20473;-79
2022/02/11 07:06:47;;;;;;;6.43;4.20;;;;;;;-0.99;100.00;93868.41;2106201;28;20028;-81
2022/02/11 07:07:49;;;;;;;6.47;3.90;;;;;;;-1.04;100.00;93872.75;2114330;28;20100;-79
2022/02/11 07:08:50;;;;;;;4.82;3.40;;;;;;;-1.00;100.00;93878.13;2114792;27;20051;-80
2022/02/11 07:09:53;;;;;;;6.10;3.88;;;;;;;-0.97;100.00;93869.59;2122879;27;20824;-80
2022/02/11 07:10:53;;;;;;;8.02;4.30;;;;;;;-0.99;100.00;93876.28;2101015;28;20084;-81
2022/02/11 07:11:54;;;;;;;6.10;4.00;;;;;;;-0.93;100.00;93878.34;2105836;28;20055;-80
2022/02/11 07:12:55;;;;;;;8.57;4.30;;;;;;;-0.94;100.00;93883.94;2105764;28;20024;-80
2022/02/11 07:13:56;;;;;;;4.80;3.90;;;;;;;-0.88;100.00;93891.31;2109810;28;20054;-82
2022/02/11 07:14:57;;;;;;;8.90;4.05;;;;;;;-0.92;100.00;93893.03;2114377;28;20530;-80
2022/02/11 07:15:58;;;;;;;7.63;4.25;;;;;;;-0.84;100.00;93892.16;2105730;28;20016;-81
2022/02/11 07:17:00;;;;;;;9.25;4.03;;;;;;;-0.95;100.00;93895.53;2101731;28;20024;-81
2022/02/11 07:18:01;;;;;;;5.18;4.03;;;;;;;-1.03;100.00;93900.53;2106480;27;20020;-81
2022/02/11 07:19:02;;;;;;;10.93;4.65;;;;;;;-0.93;100.00;93899.34;2114122;27;20077;-79
2022/02/11 07:20:05;;;;;;;6.40;4.22;;;;;;;-0.94;100.00;93903.06;2115644;27;20030;-80
2022/02/11 07:21:13;;;;;;;7.90;3.97;;;;;;;-1.00;100.00;93911.47;2123056;27;20021;-83
2022/02/11 07:22:14;;;;;;;8.18;4.18;;;;;;;-1.02;100.00;93907.31;2115059;27;20024;-81
2022/02/11 07:23:16;;;;;;;7.97;3.60;;;;;;;-1.11;100.00;93904.00;2121675;27;20023;-81
2022/02/11 07:24:17;;;;;;;6.82;4.13;;;;;;;-1.01;100.00;93908.06;2127176;27;20030;-80
2022/02/11 07:25:18;;;;;;;11.73;4.10;;;;;;;-1.00;100.00;93909.63;2106175;28;20024;-80
2022/02/11 07:26:19;;;;;;;7.70;4.10;;;;;;;-0.91;100.00;93914.78;2106055;28;20070;-80
2022/02/11 07:27:20;;;;;;;7.40;3.70;;;;;;;-0.94;100.00;93910.94;2114279;28;20499;-82
2022/02/11 07:28:21;;;;;;;7.57;3.60;;;;;;;-1.02;100.00;93907.31;2107647;28;20028;-80
2022/02/11 07:29:23;;;;;;;6.22;3.63;;;;;;;-1.04;100.00;93917.38;2114348;28;20028;-79
2022/02/11 07:30:24;;;;;;;7.65;3.55;;;;;;;-1.15;100.00;93921.47;2114476;27;20024;-80
2022/02/11 07:31:26;;;;;;;8.40;4.28;;;;;;;-1.20;100.00;93926.91;2125094;27;20019;-83
2022/02/11 07:32:28;;;;;;;8.85;4.13;;;;;;;-1.10;100.00;93931.00;2112004;28;20119;-81
2022/02/11 07:33:30;;;;;;;5.30;3.65;;;;;;;-1.06;100.00;93937.13;2118803;27;20543;-80
2022/02/11 07:34:31;;;;;;;5.30;3.75;;;;;;;-1.05;100.00;93943.94;2122727;27;20019;-80
2022/02/11 07:35:32;;;;;;;6.82;3.92;;;;;;;-1.08;100.00;93953.19;2107607;28;20055;-81
2022/02/11 07:36:33;;;;;;;6.35;4.70;;;;;;;-1.15;100.00;93954.78;2115269;27;20027;-81
2022/02/11 07:37:35;;;;;;;5.82;4.38;;;;;;;-1.18;100.00;93956.22;2122447;27;20027;-80
2022/02/11 07:38:36;;;;;;;7.53;5.28;;;;;;;-1.11;100.00;93961.69;2121875;27;21167;-81
2022/02/11 07:39:37;;;;;;;6.25;5.47;;;;;;;-1.16;100.00;93966.38;2131225;27;20027;-81
2022/02/11 07:40:39;;;;;;;8.70;5.82;;;;;;;-1.12;100.00;93967.28;2114136;28;20059;-81
2022/02/11 07:41:41;;;;;;;11.27;6.45;;;;;;;-1.07;100.00;93967.06;2110336;27;20027;-83
2022/02/11 07:42:45;;;;;;;12.20;5.93;;;;;;;-0.99;100.00;93965.47;2118770;27;20046;-82
2022/02/11 07:43:47;;;;;;;9.75;5.47;;;;;;;-0.94;100.00;93971.28;2122023;27;20023;-84
2022/02/11 07:44:48;;;;;;;8.38;4.60;;;;;;;-0.87;100.00;93970.78;2127706;27;20026;-82
2022/02/11 07:45:49;;;;;;;6.05;3.83;;;;;;;-0.73;100.00;93975.75;2119512;27;20076;-82
2022/02/11 07:46:51;;;;;;;9.95;4.10;;;;;;;-0.68;100.00;93978.19;2113608;28;20053;-83
2022/02/11 07:47:52;;;;;;;8.52;3.63;;;;;;;-0.65;100.00;93978.31;2105624;28;20031;-82
2022/02/11 07:48:53;;;;;;;7.45;3.85;;;;;;;-0.72;100.00;93979.91;2105759;28;20024;-82
2022/02/11 07:49:55;;;;;;;6.50;4.45;;;;;;;-0.95;100.00;93984.75;2122945;27;20019;-82
2022/02/11 07:50:56;;;;;;;14.80;7.75;;;;;;;-1.00;100.00;93982.31;2122681;27;20035;-82
2022/02/11 07:51:57;;;;;;;17.20;7.85;;;;;;;-1.07;100.00;93988.84;2116868;27;20415;-83
2022/02/11 07:52:58;;;;;;;13.82;6.18;;;;;;;-1.10;100.00;93992.13;2117680;27;20023;-83
2022/02/11 07:53:59;;;;;;;26.70;12.02;;;;;;;-1.08;100.00;93997.78;2117737;27;20019;-83
2022/02/11 07:55:01;;;;;;;20.60;11.57;;;;;;;-1.03;100.00;94000.22;2114073;28;20054;-82
2022/02/11 07:56:03;;;;;;;10.40;6.07;;;;;;;-0.94;100.00;94000.16;2127052;27;20033;-82
2022/02/11 07:57:04;;;;;;;14.60;5.97;;;;;;;-1.00;100.00;94005.94;2130528;27;20027;-82
2022/02/11 07:58:05;;;;;;;8.18;5.95;;;;;;;-1.01;100.00;94007.75;2113991;28;20455;-82
2022/02/11 07:59:06;;;;;;;11.68;5.38;;;;;;;-0.63;100.00;94004.22;2097617;28;20028;-83
2022/02/11 08:00:07;;;;;;;12.32;5.15;;;;;;;-0.63;100.00;94006.84;2101380;28;20734;-82
2022/02/11 08:01:09;;;;;;;11.05;5.30;;;;;;;-0.37;100.00;94017.88;2098423;28;20028;-83
2022/02/11 08:02:18;;;;;;;12.07;4.93;;;;;;;-0.45;100.00;94012.72;2104133;28;20730;-83
2022/02/11 08:03:19;;;;;;;9.27;4.60;;;;;;;-0.37;100.00;94017.88;2108066;27;20039;-83
2022/02/11 08:04:19;;;;;;;12.45;4.90;;;;;;;-0.52;100.00;94018.50;2105545;28;20525;-82
2022/02/11 08:05:20;;;;;;;8.05;4.75;;;;;;;-0.81;100.00;94021.97;2097347;28;20024;-84
2022/02/11 08:06:21;;;;;;;10.95;5.40;;;;;;;-0.79;100.00;94022.41;2097497;28;20028;-83
2022/02/11 08:07:22;;;;;;;11.48;4.38;;;;;;;-0.65;100.00;94028.19;2105171;28;20069;-83
2022/02/11 08:08:27;;;;;;;6.85;4.10;;;;;;;-0.67;100.00;94019.84;2108411;28;20026;-82
2022/02/11 08:09:28;;;;;;;9.70;5.88;;;;;;;-0.67;100.00;94016.47;2098208;28;20032;-82
2022/02/11 08:10:29;;;;;;;5.93;4.75;;;;;;;-0.74;100.00;94022.25;2111147;27;20074;-82
2022/02/11 08:11:30;;;;;;;9.90;4.93;;;;;;;-0.62;100.00;94024.13;2111377;28;20032;-84
2022/02/11 08:12:34;;;;;;;7.25;4.68;;;;;;;-0.44;100.00;94024.75;2097114;28;20584;-86
2022/02/11 08:13:36;;;;;;;8.02;3.97;;;;;;;-0.65;100.00;94024.78;2106008;28;21681;-84
2022/02/11 08:14:37;;;;;;;13.43;4.50;;;;;;;-0.65;100.00;94025.56;2105983;28;20539;-83
2022/02/11 08:15:38;;;;;;;9.60;4.53;;;;;;;-0.61;100.00;94028.31;2113991;28;20031;-83
2022/02/11 08:16:39;;;;;;;7.07;4.45;;;;;;;-0.54;100.00;94031.94;2108810;27;20024;-85
2022/02/11 08:17:42;;;;;;;5.57;4.15;;;;;;;-0.76;100.00;94027.78;2101825;28;20021;-83
2022/02/11 08:18:42;;;;;;;12.20;4.60;;;;;;;-0.71;100.00;94021.59;2105675;28;20027;-84
2022/02/11 08:19:43;;;;;;;7.57;4.20;;;;;;;-0.57;100.00;94024.72;2113976;28;20768;-82
2022/02/11 08:20:44;;;;;;;9.60;4.55;;;;;;;-0.52;100.00;94029.00;2109093;28;20075;-82
2022/02/11 08:21:46;;;;;;;9.57;4.72;;;;;;;-0.48;100.00;94031.72;2100751;28;20031;-84
2022/02/11 08:22:49;;;;;;;9.63;4.97;;;;;;;-0.37;100.00;94038.13;2097434;28;20572;-83
2022/02/11 08:23:51;;;;;;;9.70;4.88;;;;;;;-0.45;100.00;94038.97;2097400;28;20020;-84
2022/02/11 08:24:52;;;;;;;12.80;4.32;;;;;;;-0.18;100.00;94045.50;2113295;28;20150;-85
2022/02/11 08:25:53;;;;;;;9.13;4.13;;;;;;;-0.13;100.00;94048.72;2114740;27;20123;-84
2022/02/11 08:26:54;;;;;;;8.65;3.75;;;;;;;0.13;100.00;94051.06;2105398;28;20717;-83
2022/02/11 08:27:55;;;;;;;9.88;4.40;;;;;;;-0.02;100.00;94047.19;2105813;28;20123;-83
2022/02/11 08:28:56;;;;;;;10.10;4.28;;;;;;;0.15;100.00;94056.75;2113808;28;20024;-84
2022/02/11 08:29:57;;;;;;;11.52;3.92;;;;;;;0.45;100.00;94057.34;2112909;28;20023;-84
2022/02/11 08:30:59;;;;;;;5.97;4.05;;;;;;;0.49;100.00;94060.88;2105423;28;20032;-85
2022/02/11 08:32:00;;;;;;;9.52;4.10;;;;;;;0.52;100.00;94064.69;2113326;27;20464;-84
2022/02/11 08:33:01;;;;;;;8.63;3.42;;;;;;;0.43;100.00;94064.03;2113708;27;20110;-86
2022/02/11 08:34:03;;;;;;;8.07;3.60;;;;;;;0.16;100.00;94062.78;2109643;28;20023;-83
2022/02/11 08:35:05;;;;;;;10.65;4.13;;;;;;;0.03;100.00;94061.22;2104761;28;20760;-85
2022/02/11 08:36:06;;;;;;;12.07;4.28;;;;;;;0.12;100.00;94067.16;2105411;28;20393;-84
2022/02/11 08:37:07;;;;;;;10.07;4.00;;;;;;;0.35;100.00;94075.41;2105249;28;20063;-84
2022/02/11 08:38:08;;;;;;;6.72;4.07;;;;;;;0.40;100.00;94075.22;2113651;28;20028;-84
2022/02/11 08:39:09;;;;;;;9.73;4.10;;;;;;;0.10;100.00;94070.13;2113954;27;20078;-82
2022/02/11 08:40:11;;;;;;;8.52;3.72;;;;;;;0.05;100.00;94080.84;2113943;28;20016;-84
2022/02/11 08:41:12;;;;;;;7.75;4.05;;;;;;;0.05;100.00;94078.22;2105650;28;20020;-83
2022/02/11 08:42:13;;;;;;;10.30;4.68;;;;;;;-0.10;100.00;94078.81;2119797;27;20023;-83